Marathon, FL

11:46 AM EDT on July 28, 2015 (GMT -0400)
APRSWXNET | | Change Station
CLOSE
Current Station
Personal Weather Station
Location: Marathon, FL
Elevation: 15 ft
Nearby Weather Stations

Elev 15 ft 24.74 °N, 80.98 °W | Updated 23 minutes ago

Clear
Clear
89 °F
Feels Like 104 °F
N
3
Wind Variable Wind from SE
Gusts 7.0 mph

Today
High -- | Low -- °F
--% Chance of Precip.
Yesterday
High -- | Low -- °F
Precip. -- in
6:49 AM 8:10 PM
Waxing Gibbous, 90% visible
Pressure 30.05 in
Visibility 10.0 miles
Clouds Scattered Clouds 2200 ft
Scattered Clouds 14000 ft
Heat Index 104 °F
Dew Point 79 °F
Humidity 72%
Rainfall in
Snow Depth Not available.
UV 8 out of 12
Pollen 3.40 out of 12
Air Quality Not available.
Flu Activity Not available.
METAR KNQX 281453Z 21004KT 10SM SCT022 SCT140 31/24 A3005 RMK AO2 SLP174 T03110244 51012 $

More Conditions Fewer Conditions

Pressure 30.05 in
Visibility 10.0 miles
Clouds Scattered Clouds 2200 ft
Scattered Clouds 14000 ft
Heat Index 104 °F
Dew Point 79 °F
Humidity 72%
Rainfall in
Snow Depth Not available.
UV 8 out of 12
Pollen 3.40 out of 12
Air Quality Not available.
Flu Activity Not available.
METAR KNQX 281453Z 21004KT 10SM SCT022 SCT140 31/24 A3005 RMK AO2 SLP174 T03110244 51012 $

More Conditions Fewer Conditions

10-Day Weather Forecast

×

Almanac

Astronomy

Jul. 28, 2015 Rise Set
Actual Time
Civil Twilight
Nautical Twilight
Astronomical Twilight
Moon
Length of Visible Light
Length of Day
Tomorrow will be .
, % of the Moon is Illuminated

Today's Extremes

State Highs State Lows

Community

WunderPhotos

Upload Photos

1,841,864 photos uploaded!

WunderBlogs® & News

Nearby

Air Quality

  Air Quality AQ Index Pollutant
Not available.

Snow Depth

Station Depth Elevation

Earthquake Activity

City Distance Mag. Time & Date
Minimum magnitude displayed is 2.5.

Coastal Water Temperatures

Place Temperature

Stations

Nearby Weather Stations

Station Location Temp. Windchill Dew Point Humidity Wind Precip. Elev Updated Type